In Rescue
 
Open Full Screen Window  High Contrast Mode
December 19, 2018 10:23 AM EST
Weather Information
Wind Direction
  ---
Wind Speed
  00 kt (0 mph)
Wind Gust
  00 kt (0 mph)
Altimeter
30.06 in
Visibility
10 SM
Temperature
00° C
32° F
Dewpoint
-04° C
25° F
Humidity
75%
1hr Rain Fall
00.00 in.
24hr Rain Fall
00.00 in.
Sky Condition
Clear
VFR

METAR KPOV 191523Z AUTO 00000KT 10SM CLR 00/M04 A3006 RMK AO2 T00041039 PWINO

FAA Disclaimer: The data displayed is for advisory purposes only and is not to be used for flight planning or operations.